createdAt,value
2017-05-02T00:00:39.625Z,13.63
2017-05-02T00:03:06.294Z,13.20
2017-05-02T00:05:32.958Z,12.13
2017-05-02T00:07:59.619Z,13.12
2017-05-02T00:10:26.286Z,13.67
2017-05-02T00:12:52.957Z,14.45
2017-05-02T00:15:19.618Z,14.22
2017-05-02T00:17:46.287Z,14.62
2017-05-02T00:20:12.950Z,15.35
2017-05-02T00:22:39.618Z,15.97
2017-05-02T00:25:06.283Z,15.15
2017-05-02T00:27:32.948Z,13.75
2017-05-02T00:29:59.610Z,14.92
2017-05-02T00:32:26.278Z,15.87
2017-05-02T00:34:52.935Z,14.82
2017-05-02T00:37:19.606Z,16.55
2017-05-02T00:39:46.274Z,14.80
2017-05-02T00:42:12.967Z,15.35
2017-05-02T00:44:39.634Z,15.38
2017-05-02T00:47:06.335Z,15.87
2017-05-02T00:49:32.999Z,14.35
2017-05-02T00:51:59.662Z,14.55
2017-05-02T00:54:26.328Z,15.18
2017-05-02T00:56:52.999Z,13.58
2017-05-02T00:59:19.672Z,14.52
2017-05-02T01:01:46.343Z,14.37
2017-05-02T01:04:13.011Z,14.23
2017-05-02T01:06:39.678Z,13.47
2017-05-02T01:09:06.340Z,14.33
2017-05-02T01:11:33.018Z,15.33
2017-05-02T01:13:59.682Z,14.72
2017-05-02T01:16:26.351Z,14.42
2017-05-02T01:18:53.020Z,13.58
2017-05-02T01:21:19.688Z,14.85
2017-05-02T01:23:46.355Z,12.65
2017-05-02T01:26:13.026Z,14.38
2017-05-02T01:28:39.695Z,14.48
2017-05-02T01:31:06.370Z,13.72
2017-05-02T01:33:33.059Z,13.30
2017-05-02T01:35:59.722Z,14.02
2017-05-02T01:38:26.406Z,13.30
2017-05-02T01:40:53.070Z,14.02
2017-05-02T01:43:19.780Z,14.00
2017-05-02T01:45:46.453Z,13.45
2017-05-02T01:48:13.119Z,13.93
2017-05-02T01:50:39.783Z,13.40
2017-05-02T01:53:06.450Z,14.17
2017-05-02T01:55:33.117Z,13.02
2017-05-02T01:57:59.784Z,14.18
2017-05-02T02:00:26.450Z,13.12
2017-05-02T02:02:53.122Z,13.28
2017-05-02T02:05:19.788Z,13.08
2017-05-02T02:07:46.458Z,13.77
2017-05-02T02:10:13.136Z,14.12
2017-05-02T02:12:39.798Z,15.28
2017-05-02T02:15:06.458Z,13.60
2017-05-02T02:17:33.127Z,13.37
2017-05-02T02:19:59.792Z,14.23
2017-05-02T02:22:26.457Z,12.07
2017-05-02T02:24:53.127Z,13.00
2017-05-02T02:27:19.796Z,13.40
2017-05-02T02:29:46.463Z,13.75
2017-05-02T02:32:13.131Z,13.80
2017-05-02T02:34:40.052Z,13.62
2017-05-02T02:37:06.729Z,14.55
2017-05-02T02:39:33.414Z,13.70
2017-05-02T02:42:00.074Z,13.35
2017-05-02T02:44:26.743Z,13.63
2017-05-02T02:46:53.410Z,14.22
2017-05-02T02:49:20.070Z,13.90
2017-05-02T02:51:46.735Z,12.83
2017-05-02T02:54:13.403Z,14.52
2017-05-02T02:56:40.066Z,14.27
2017-05-02T02:59:06.737Z,14.28
2017-05-02T03:01:33.411Z,14.58
2017-05-02T03:04:00.082Z,14.40
2017-05-02T03:06:26.746Z,13.67
2017-05-02T03:08:53.414Z,14.12
2017-05-02T03:11:20.083Z,15.13
2017-05-02T03:13:46.750Z,14.95
2017-05-02T03:16:14.516Z,14.80
2017-05-02T03:18:41.216Z,14.40
2017-05-02T03:21:07.882Z,14.93
2017-05-02T03:23:34.547Z,14.87
2017-05-02T03:26:01.221Z,14.78
2017-05-02T03:28:27.887Z,13.17
2017-05-02T03:30:54.556Z,13.00
2017-05-02T03:33:21.228Z,13.27
2017-05-02T03:35:47.893Z,14.55
2017-05-02T03:38:14.554Z,15.18
2017-05-02T03:40:41.222Z,14.68
2017-05-02T03:43:07.895Z,14.78
2017-05-02T03:45:34.597Z,15.25
2017-05-02T03:48:01.262Z,14.87
2017-05-02T03:50:27.924Z,14.33
2017-05-02T03:52:54.594Z,14.33
2017-05-02T03:55:21.263Z,13.62
2017-05-02T03:57:47.927Z,13.93
2017-05-02T04:00:14.594Z,15.00
2017-05-02T04:02:41.264Z,13.95
2017-05-02T04:05:07.926Z,14.75
2017-05-02T04:07:34.590Z,15.23
2017-05-02T04:10:01.258Z,14.17
2017-05-02T04:12:27.926Z,13.95
2017-05-02T04:14:54.598Z,13.20
2017-05-02T04:17:21.270Z,14.67
2017-05-02T04:19:47.938Z,13.47
2017-05-02T04:22:14.606Z,13.85
2017-05-02T04:24:41.278Z,13.05
2017-05-02T04:27:07.938Z,12.65
2017-05-02T04:29:34.603Z,13.08
2017-05-02T04:32:01.286Z,13.13
2017-05-02T04:34:27.955Z,12.73
2017-05-02T04:36:54.627Z,12.20
2017-05-02T04:39:21.295Z,13.15
2017-05-02T04:41:47.967Z,12.63
2017-05-02T04:44:14.636Z,12.33
2017-05-02T04:46:41.310Z,12.38
2017-05-02T04:49:07.982Z,11.93
2017-05-02T04:51:34.646Z,13.07
2017-05-02T04:54:01.321Z,12.78
2017-05-02T04:56:27.991Z,13.10
2017-05-02T04:58:54.662Z,12.00
2017-05-02T05:01:21.325Z,12.83
2017-05-02T05:03:48.003Z,13.12
2017-05-02T05:06:14.671Z,12.35
2017-05-02T05:08:41.343Z,11.95
2017-05-02T05:11:08.010Z,13.08
2017-05-02T05:13:34.679Z,12.40
2017-05-02T05:16:01.351Z,12.05
2017-05-02T05:18:28.019Z,13.30
2017-05-02T05:20:54.694Z,11.38
2017-05-02T05:23:21.363Z,10.95
2017-05-02T05:25:48.031Z,11.97
2017-05-02T05:28:14.705Z,11.07
2017-05-02T05:30:41.366Z,12.02
2017-05-02T05:33:08.030Z,10.92
2017-05-02T05:35:34.686Z,11.28
2017-05-02T05:38:01.354Z,11.97
2017-05-02T05:40:28.018Z,11.08
2017-05-02T05:42:54.680Z,10.87
2017-05-02T05:45:21.343Z,10.75
2017-05-02T05:47:48.003Z,11.05
2017-05-02T05:50:14.662Z,10.98
2017-05-02T05:52:41.330Z,11.17
2017-05-02T05:55:08.191Z,10.68
2017-05-02T05:57:34.854Z,11.15
2017-05-02T06:00:01.510Z,10.57
2017-05-02T06:02:28.167Z,10.30
2017-05-02T06:04:54.834Z,11.37
2017-05-02T06:07:21.502Z,12.53
2017-05-02T06:09:48.173Z,11.68
2017-05-02T06:12:14.829Z,9.42
2017-05-02T06:14:41.490Z,10.30
2017-05-02T06:17:08.159Z,10.82
2017-05-02T06:19:34.828Z,11.35
2017-05-02T06:22:01.494Z,10.80
2017-05-02T06:24:28.156Z,10.17
2017-05-02T06:26:54.816Z,11.90
2017-05-02T06:29:21.481Z,11.03
2017-05-02T06:31:48.143Z,10.18
2017-05-02T06:34:14.804Z,10.38
2017-05-02T06:36:41.474Z,11.02
2017-05-02T06:39:08.130Z,10.12
2017-05-02T06:41:34.804Z,11.52
2017-05-02T06:44:01.466Z,11.12
2017-05-02T06:46:28.130Z,11.20
2017-05-02T06:48:54.802Z,11.88
2017-05-02T06:51:21.474Z,11.32
2017-05-02T06:53:48.147Z,10.15
2017-05-02T06:56:14.810Z,11.27
2017-05-02T06:58:41.475Z,11.63
2017-05-02T07:01:08.143Z,10.48
2017-05-02T07:03:34.816Z,12.03
2017-05-02T07:06:01.482Z,11.98
2017-05-02T07:08:28.142Z,10.90
2017-05-02T07:10:54.814Z,10.83
2017-05-02T07:13:21.522Z,11.85
2017-05-02T07:15:48.185Z,12.42
2017-05-02T07:18:14.854Z,11.82
2017-05-02T07:20:41.518Z,11.85
2017-05-02T07:23:08.183Z,13.12
2017-05-02T07:25:34.847Z,12.85
2017-05-02T07:28:01.515Z,13.22
2017-05-02T07:30:28.179Z,12.73
2017-05-02T07:32:54.842Z,12.48
2017-05-02T07:35:21.502Z,12.97
2017-05-02T07:37:48.168Z,13.37
2017-05-02T07:40:14.834Z,12.68
2017-05-02T07:42:41.502Z,12.08
2017-05-02T07:45:08.171Z,11.62
2017-05-02T07:47:34.842Z,11.63
2017-05-02T07:50:01.526Z,12.12
2017-05-02T07:52:28.190Z,14.32
2017-05-02T07:54:54.851Z,12.80
2017-05-02T07:57:21.518Z,11.53
2017-05-02T07:59:48.183Z,10.97
2017-05-02T08:02:14.854Z,11.70
2017-05-02T08:04:41.522Z,11.43
2017-05-02T08:07:08.182Z,10.77
2017-05-02T08:09:34.838Z,12.58
2017-05-02T08:12:01.503Z,12.08
2017-05-02T08:14:28.173Z,11.35
2017-05-02T08:16:54.839Z,11.48
2017-05-02T08:19:21.502Z,11.10
2017-05-02T08:21:48.199Z,10.10
2017-05-02T08:24:14.850Z,10.72
2017-05-02T08:26:41.519Z,11.33
2017-05-02T08:29:08.178Z,10.77
2017-05-02T08:31:34.834Z,9.67
2017-05-02T08:34:01.496Z,9.33
2017-05-02T08:36:28.163Z,9.25
2017-05-02T08:38:54.826Z,11.25
2017-05-02T08:41:21.482Z,9.38
2017-05-02T08:43:48.150Z,11.17
2017-05-02T08:46:14.824Z,9.95
2017-05-02T08:48:41.486Z,10.08
2017-05-02T08:51:08.152Z,11.72
2017-05-02T08:53:34.820Z,10.22
2017-05-02T08:56:01.479Z,9.65
2017-05-02T08:58:28.138Z,9.47
2017-05-02T09:00:54.818Z,10.95
2017-05-02T09:03:21.478Z,10.08
2017-05-02T09:05:48.135Z,10.70
2017-05-02T09:08:14.791Z,9.77
2017-05-02T09:10:41.451Z,10.83
2017-05-02T09:13:08.135Z,10.07
2017-05-02T09:15:34.807Z,11.00
2017-05-02T09:18:01.467Z,10.85
2017-05-02T09:20:28.127Z,9.97
2017-05-02T09:22:54.785Z,9.63
2017-05-02T09:25:21.446Z,12.02
2017-05-02T09:27:48.110Z,11.03
2017-05-02T09:30:14.802Z,10.73
2017-05-02T09:32:41.462Z,10.77
2017-05-02T09:35:08.130Z,11.32
2017-05-02T09:37:34.803Z,12.30
2017-05-02T09:40:01.466Z,10.78
2017-05-02T09:42:28.130Z,10.47
2017-05-02T09:44:54.800Z,11.13
2017-05-02T09:47:21.470Z,12.02
2017-05-02T09:49:48.135Z,11.63
2017-05-02T09:52:14.802Z,12.98
2017-05-02T09:54:41.462Z,10.75
2017-05-02T09:57:08.123Z,11.57
2017-05-02T09:59:34.778Z,10.78
2017-05-02T10:02:01.437Z,10.82
2017-05-02T10:04:28.093Z,10.48
2017-05-02T10:06:54.758Z,10.70
2017-05-02T10:09:21.431Z,11.08
2017-05-02T10:11:48.092Z,10.40
2017-05-02T10:14:14.752Z,11.03
2017-05-02T10:16:41.426Z,11.57
2017-05-02T10:19:08.090Z,11.35
2017-05-02T10:21:34.750Z,10.80
2017-05-02T10:24:01.414Z,11.50
2017-05-02T10:26:28.082Z,11.05
2017-05-02T10:28:54.751Z,11.87
2017-05-02T10:31:21.419Z,12.12
2017-05-02T10:33:48.083Z,11.17
2017-05-02T10:36:14.752Z,12.00
2017-05-02T10:38:41.410Z,11.73
2017-05-02T10:41:08.085Z,11.72
2017-05-02T10:43:34.751Z,12.78
2017-05-02T10:46:01.410Z,11.38
2017-05-02T10:48:28.074Z,12.25
2017-05-02T10:50:54.737Z,12.77
2017-05-02T10:53:21.404Z,13.17
2017-05-02T10:55:48.063Z,12.35
2017-05-02T10:58:14.759Z,15.08
2017-05-02T11:00:41.423Z,12.00
2017-05-02T11:03:08.088Z,14.18
2017-05-02T11:05:34.761Z,15.18
2017-05-02T11:08:01.431Z,13.72
2017-05-02T11:10:28.098Z,12.52
2017-05-02T11:12:54.770Z,13.25
2017-05-02T11:15:21.435Z,14.28
2017-05-02T11:17:48.134Z,15.30
2017-05-02T11:20:14.799Z,13.77
2017-05-02T11:22:41.463Z,14.05
2017-05-02T11:25:08.150Z,13.57
2017-05-02T11:27:34.816Z,13.15
2017-05-02T11:30:01.480Z,12.93
2017-05-02T11:32:28.149Z,13.32
2017-05-02T11:34:54.815Z,12.88
2017-05-02T11:37:21.482Z,13.83
2017-05-02T11:39:48.146Z,13.90
2017-05-02T11:42:14.810Z,14.22
2017-05-02T11:44:41.634Z,13.73
2017-05-02T11:47:08.302Z,14.97
2017-05-02T11:49:34.973Z,15.73
2017-05-02T11:52:01.646Z,13.67
2017-05-02T11:54:28.314Z,14.87
2017-05-02T11:56:54.983Z,13.82
2017-05-02T11:59:21.655Z,13.90
2017-05-02T12:01:48.323Z,14.78
2017-05-02T12:04:14.986Z,14.35
2017-05-02T12:06:41.650Z,15.87
2017-05-02T12:09:08.314Z,16.52
2017-05-02T12:11:34.986Z,17.25
2017-05-02T12:14:01.650Z,15.83
2017-05-02T12:16:28.306Z,14.37
2017-05-02T12:18:54.971Z,17.70
2017-05-02T12:21:21.639Z,16.67
2017-05-02T12:23:48.307Z,18.00
2017-05-02T12:26:14.970Z,17.63
2017-05-02T12:28:41.640Z,16.25
2017-05-02T12:31:08.306Z,16.77
2017-05-02T12:33:34.979Z,19.28
2017-05-02T12:36:01.647Z,16.45
2017-05-02T12:38:28.310Z,17.92
2017-05-02T12:40:54.979Z,17.32
2017-05-02T12:43:21.644Z,17.88
2017-05-02T12:45:48.314Z,17.68
2017-05-02T12:48:14.987Z,19.12
2017-05-02T12:50:41.650Z,17.83
2017-05-02T12:53:08.323Z,19.72
2017-05-02T12:58:01.703Z,19.73
2017-05-02T13:00:28.370Z,18.93
2017-05-02T13:02:55.039Z,19.73
2017-05-02T13:05:21.710Z,20.73
2017-05-02T13:07:48.375Z,19.58
2017-05-02T13:10:15.055Z,18.63
2017-05-02T13:12:41.719Z,24.35
2017-05-02T13:15:08.387Z,20.20
2017-05-02T13:17:35.051Z,21.78
2017-05-02T13:20:01.731Z,18.57
2017-05-02T13:22:28.394Z,22.52
2017-05-02T13:24:55.063Z,22.47
2017-05-02T13:27:21.735Z,18.95
2017-05-02T13:29:48.412Z,20.73
2017-05-02T13:32:15.082Z,22.42
2017-05-02T13:34:41.748Z,22.40
2017-05-02T13:37:08.429Z,21.70
2017-05-02T13:39:35.094Z,22.82
2017-05-02T13:42:01.762Z,18.62
2017-05-02T13:44:28.429Z,20.80
2017-05-02T13:46:55.106Z,22.73
2017-05-02T13:49:22.061Z,19.92
2017-05-02T13:51:48.730Z,23.33
2017-05-02T13:54:15.391Z,22.08
2017-05-02T13:56:42.059Z,21.88
2017-05-02T13:59:08.721Z,23.02
2017-05-02T14:01:35.379Z,21.82
2017-05-02T14:04:02.038Z,23.67
2017-05-02T14:06:28.706Z,26.03
2017-05-02T14:08:55.375Z,21.02
2017-05-02T14:11:22.038Z,18.83
2017-05-02T14:13:48.703Z,21.30
2017-05-02T14:16:15.366Z,23.52
2017-05-02T14:18:42.039Z,23.95
2017-05-02T14:21:08.729Z,23.00
2017-05-02T14:23:35.399Z,24.13
2017-05-02T14:26:02.075Z,21.72
2017-05-02T14:28:28.775Z,25.12
2017-05-02T14:30:55.444Z,21.25
2017-05-02T14:33:22.143Z,20.57
2017-05-02T14:35:48.815Z,19.72
2017-05-02T14:38:15.519Z,21.18
2017-05-02T14:40:42.182Z,19.77
2017-05-02T14:43:08.850Z,19.75
2017-05-02T14:45:35.519Z,19.85
2017-05-02T14:48:02.187Z,21.23
2017-05-02T14:50:28.859Z,22.77
2017-05-02T14:52:55.526Z,22.93
2017-05-02T14:55:22.195Z,21.03
2017-05-02T14:57:48.856Z,20.65
2017-05-02T15:00:15.546Z,21.23
2017-05-02T15:02:42.211Z,20.00
2017-05-02T15:05:08.878Z,20.62
2017-05-02T15:07:35.542Z,16.97
2017-05-02T15:10:02.211Z,18.27
2017-05-02T15:12:28.876Z,19.03
2017-05-02T15:14:55.551Z,16.82
2017-05-02T15:17:22.231Z,16.85
2017-05-02T15:19:48.902Z,15.92
2017-05-02T15:22:15.573Z,15.98
2017-05-02T15:24:42.239Z,17.10
2017-05-02T15:27:08.911Z,16.77
2017-05-02T15:29:35.579Z,13.65
2017-05-02T15:32:02.314Z,14.32
2017-05-02T15:34:28.979Z,12.47
2017-05-02T15:36:55.650Z,11.67
2017-05-02T15:39:22.355Z,14.47
2017-05-02T15:41:49.018Z,13.32
2017-05-02T15:44:15.783Z,12.87
2017-05-02T15:46:42.451Z,13.78
2017-05-02T15:49:09.130Z,15.23
2017-05-02T15:51:35.795Z,16.33
2017-05-02T15:54:02.462Z,14.27
2017-05-02T15:56:29.631Z,14.67
2017-05-02T15:58:56.326Z,15.00
2017-05-02T16:01:22.990Z,15.35
2017-05-02T16:03:49.665Z,14.10
2017-05-02T16:06:16.334Z,16.08
2017-05-02T16:08:43.002Z,13.53
2017-05-02T16:11:09.677Z,18.62
2017-05-02T16:13:36.362Z,15.60
2017-05-02T16:16:03.022Z,14.75
2017-05-02T16:18:29.690Z,16.73
2017-05-02T16:20:56.864Z,15.25
2017-05-02T16:23:23.538Z,14.85
2017-05-02T16:25:50.649Z,15.50
2017-05-02T16:28:17.350Z,15.80
2017-05-02T16:30:44.017Z,14.72
2017-05-02T16:33:10.691Z,14.75
2017-05-02T16:35:37.386Z,13.55
2017-05-02T16:38:04.045Z,12.75
2017-05-02T16:40:30.734Z,17.82
2017-05-02T16:42:57.401Z,13.95
2017-05-02T16:45:24.094Z,15.20
2017-05-02T16:47:50.761Z,14.93
2017-05-02T16:50:17.423Z,17.58
2017-05-02T16:52:44.111Z,19.07
2017-05-02T16:55:10.780Z,14.12
2017-05-02T16:57:37.463Z,13.65
2017-05-02T17:00:04.126Z,15.85
2017-05-02T17:02:30.810Z,15.75
2017-05-02T17:04:57.479Z,16.92
2017-05-02T17:07:24.227Z,16.70
2017-05-02T17:09:50.937Z,14.38
2017-05-02T17:12:17.638Z,18.77
2017-05-02T17:14:44.313Z,14.43
2017-05-02T17:17:11.007Z,18.12
2017-05-02T17:19:37.674Z,19.78
2017-05-02T17:22:04.358Z,16.30
2017-05-02T17:24:31.027Z,14.72
2017-05-02T17:26:57.723Z,14.00
2017-05-02T17:29:24.395Z,17.00
2017-05-02T17:31:51.055Z,15.48
2017-05-02T17:34:17.747Z,14.17
2017-05-02T17:36:44.830Z,14.93
2017-05-02T17:39:11.517Z,15.30
2017-05-02T17:41:38.179Z,15.30
2017-05-02T17:44:04.862Z,14.55
2017-05-02T17:46:31.529Z,17.47
2017-05-02T17:48:58.214Z,15.23
2017-05-02T17:51:24.885Z,17.18
2017-05-02T17:53:51.915Z,15.07
2017-05-02T17:56:18.585Z,18.30
2017-05-02T17:58:45.270Z,17.27
2017-05-02T18:01:11.930Z,16.30
2017-05-02T18:03:38.623Z,17.23
2017-05-02T18:06:05.284Z,15.78
2017-05-02T18:08:31.987Z,16.17
2017-05-02T18:10:58.654Z,16.62
2017-05-02T18:13:25.338Z,16.42
2017-05-02T18:15:52.009Z,14.32
2017-05-02T18:18:18.699Z,16.52
2017-05-02T18:20:45.373Z,17.13
2017-05-02T18:23:12.076Z,20.73
2017-05-02T18:25:38.743Z,18.40
2017-05-02T18:28:05.411Z,18.40
2017-05-02T18:30:32.098Z,17.57
2017-05-02T18:32:58.766Z,16.63
2017-05-02T18:35:25.466Z,17.07
2017-05-02T18:37:52.135Z,18.00
2017-05-02T18:40:18.835Z,18.70
2017-05-02T18:42:45.505Z,20.15
2017-05-02T18:45:12.198Z,19.17
2017-05-02T18:47:38.864Z,19.98
2017-05-02T18:50:05.550Z,19.67
2017-05-02T18:52:32.222Z,19.75
2017-05-02T18:54:58.911Z,21.70
2017-05-02T18:57:25.582Z,18.78
2017-05-02T18:59:52.270Z,19.72
2017-05-02T19:02:18.934Z,21.25
2017-05-02T19:04:45.622Z,23.10
2017-05-02T19:07:12.295Z,24.10
2017-05-02T19:09:38.999Z,20.83
2017-05-02T19:12:05.663Z,18.98
2017-05-02T19:14:32.367Z,19.90
2017-05-02T19:16:59.030Z,18.08
2017-05-02T19:19:25.726Z,21.78
2017-05-02T19:21:52.392Z,18.65
2017-05-02T19:24:19.059Z,22.83
2017-05-02T19:26:45.746Z,19.57
2017-05-02T19:29:12.428Z,21.80
2017-05-02T19:31:39.119Z,22.38
2017-05-02T19:34:05.786Z,22.63
2017-05-02T19:36:32.470Z,24.92
2017-05-02T19:38:59.138Z,20.50
2017-05-02T19:41:25.849Z,22.03
2017-05-02T19:43:52.513Z,23.27
2017-05-02T19:46:19.196Z,19.75
2017-05-02T19:48:45.883Z,22.52
2017-05-02T19:51:12.566Z,20.80
2017-05-02T19:53:39.255Z,21.20
2017-05-02T19:56:05.918Z,22.47
2017-05-02T19:58:32.616Z,22.15
2017-05-02T20:00:59.287Z,23.45
2017-05-02T20:03:25.983Z,28.72
2017-05-02T20:05:52.651Z,23.42
2017-05-02T20:08:19.377Z,24.45
2017-05-02T20:10:46.059Z,23.90
2017-05-02T20:13:12.751Z,26.05
2017-05-02T20:15:39.421Z,23.98
2017-05-02T20:18:06.111Z,23.90
2017-05-02T20:20:32.795Z,22.77
2017-05-02T20:22:59.490Z,22.97
2017-05-02T20:25:26.157Z,23.42
2017-05-02T20:27:52.846Z,25.82
2017-05-02T20:30:19.514Z,23.85
2017-05-02T20:32:46.189Z,26.00
2017-05-02T20:35:12.883Z,25.52
2017-05-02T20:37:39.556Z,26.98
2017-05-02T20:40:06.248Z,23.63
2017-05-02T20:42:32.910Z,24.08
2017-05-02T20:44:59.595Z,25.20
2017-05-02T20:47:26.263Z,27.82
2017-05-02T20:49:52.952Z,26.28
2017-05-02T20:52:19.634Z,23.23
2017-05-02T20:54:46.320Z,22.38
2017-05-02T20:57:12.982Z,28.10
2017-05-02T20:59:39.668Z,28.48
2017-05-02T21:02:06.332Z,29.85
2017-05-02T21:04:33.014Z,27.95
2017-05-02T21:06:59.670Z,25.50
2017-05-02T21:09:26.362Z,28.87
2017-05-02T21:11:53.023Z,25.12
2017-05-02T21:14:19.710Z,29.48
2017-05-02T21:16:46.379Z,27.68
2017-05-02T21:19:13.070Z,26.28
2017-05-02T21:21:39.735Z,27.78
2017-05-02T21:24:06.426Z,31.97
2017-05-02T21:26:33.090Z,32.30
2017-05-02T21:28:59.760Z,27.08
2017-05-02T21:31:26.445Z,26.67
2017-05-02T21:33:53.111Z,31.93
2017-05-02T21:36:19.803Z,27.67
2017-05-02T21:38:46.475Z,29.48
2017-05-02T21:41:13.162Z,29.97
2017-05-02T21:43:39.841Z,26.33
2017-05-02T21:46:06.532Z,29.72
2017-05-02T21:48:33.199Z,25.37
2017-05-02T21:50:59.889Z,27.63
2017-05-02T21:53:26.560Z,30.40
2017-05-02T21:55:53.246Z,28.48
2017-05-02T21:58:19.907Z,27.02
2017-05-02T22:00:46.597Z,29.83
2017-05-02T22:03:13.510Z,24.08
2017-05-02T22:05:40.200Z,26.12
2017-05-02T22:08:06.867Z,27.48
2017-05-02T22:10:33.555Z,23.73
2017-05-02T22:13:00.229Z,33.65
2017-05-02T22:15:26.915Z,23.55
2017-05-02T22:17:53.581Z,28.48
2017-05-02T22:20:20.275Z,27.18
2017-05-02T22:22:46.938Z,24.60
2017-05-02T22:25:13.613Z,27.23
2017-05-02T22:27:40.300Z,27.62
2017-05-02T22:30:06.962Z,23.40
2017-05-02T22:32:33.652Z,25.70
2017-05-02T22:35:00.322Z,26.88
2017-05-02T22:37:27.010Z,25.03
2017-05-02T22:39:53.911Z,30.37
2017-05-02T22:42:21.464Z,27.88
2017-05-02T22:44:48.146Z,26.00
2017-05-02T22:47:14.834Z,29.82
2017-05-02T22:49:41.498Z,29.68
2017-05-02T22:52:08.182Z,28.20
2017-05-02T22:54:34.850Z,31.98
2017-05-02T22:57:01.535Z,34.08
2017-05-02T22:59:28.199Z,27.35
2017-05-02T23:01:54.879Z,29.95
2017-05-02T23:04:21.542Z,31.33
2017-05-02T23:06:48.240Z,39.17
2017-05-02T23:09:14.902Z,33.98
2017-05-02T23:11:41.587Z,33.00
2017-05-02T23:14:08.252Z,31.08
2017-05-02T23:16:34.938Z,31.92
2017-05-02T23:19:01.603Z,32.45
2017-05-02T23:21:28.266Z,36.02
2017-05-02T23:23:54.955Z,36.27
2017-05-02T23:26:21.618Z,31.70
2017-05-02T23:28:48.307Z,38.70
2017-05-02T23:31:14.974Z,37.73
2017-05-02T23:33:41.659Z,31.68
2017-05-02T23:36:08.330Z,37.45
2017-05-02T23:38:35.026Z,36.73
2017-05-02T23:41:01.695Z,36.57
2017-05-02T23:43:28.375Z,39.47
2017-05-02T23:45:55.046Z,36.02
2017-05-02T23:48:21.734Z,39.73
2017-05-02T23:50:48.398Z,40.02
2017-05-02T23:53:15.094Z,33.43
2017-05-02T23:55:41.760Z,37.65
2017-05-02T23:58:08.446Z,39.22
